createdAt,value
2018-02-21T00:00:55.656Z,45.97
2018-02-21T00:03:21.887Z,45.90
2018-02-21T00:05:48.126Z,49.60
2018-02-21T00:08:14.328Z,50.47
2018-02-21T00:10:40.764Z,51.03
2018-02-21T00:13:07.069Z,48.55
2018-02-21T00:15:33.657Z,55.20
2018-02-21T00:17:59.971Z,48.00
2018-02-21T00:20:26.155Z,57.38
2018-02-21T00:22:52.551Z,57.62
2018-02-21T00:25:18.776Z,51.45
2018-02-21T00:27:45.046Z,59.63
2018-02-21T00:30:12.398Z,60.83
2018-02-21T00:32:39.000Z,58.13
2018-02-21T00:35:05.209Z,60.25
2018-02-21T00:37:31.412Z,60.22
2018-02-21T00:39:57.730Z,59.33
2018-02-21T00:42:23.997Z,56.78
2018-02-21T00:44:50.269Z,54.95
2018-02-21T00:47:16.572Z,57.28
2018-02-21T00:49:42.947Z,58.33
2018-02-21T00:52:09.166Z,60.20
2018-02-21T00:54:35.357Z,56.13
2018-02-21T00:57:01.660Z,67.10
2018-02-21T00:59:27.886Z,59.42
2018-02-21T01:01:54.107Z,60.90
2018-02-21T01:04:20.367Z,52.42
2018-02-21T01:06:46.584Z,52.95
2018-02-21T01:09:12.803Z,53.85
2018-02-21T01:11:39.052Z,56.72
2018-02-21T01:14:05.277Z,57.10
2018-02-21T01:16:31.468Z,50.92
2018-02-21T01:18:57.728Z,47.45
2018-02-21T01:21:24.033Z,45.33
2018-02-21T01:23:50.251Z,48.67
2018-02-21T01:26:16.489Z,44.95
2018-02-21T01:28:43.226Z,45.88
2018-02-21T01:31:10.056Z,54.70
2018-02-21T01:33:36.277Z,45.25
2018-02-21T01:36:02.588Z,41.75
2018-02-21T01:38:28.866Z,49.58
2018-02-21T01:40:55.098Z,46.08
2018-02-21T01:43:21.771Z,44.17
2018-02-21T01:45:47.997Z,43.15
2018-02-21T01:48:14.199Z,47.95
2018-02-21T01:50:51.458Z,39.67
2018-02-21T01:53:17.698Z,41.28
2018-02-21T01:55:43.894Z,42.45
2018-02-21T01:58:10.221Z,48.28
2018-02-21T02:00:36.809Z,42.78
2018-02-21T02:03:02.986Z,45.42
2018-02-21T02:05:29.233Z,41.47
2018-02-21T02:07:55.479Z,45.53
2018-02-21T02:10:21.685Z,48.40
2018-02-21T02:12:47.920Z,40.78
2018-02-21T02:15:14.123Z,41.75
2018-02-21T02:17:40.478Z,39.95
2018-02-21T02:20:06.725Z,39.60
2018-02-21T02:22:32.975Z,40.03
2018-02-21T02:24:59.230Z,43.40
2018-02-21T02:27:25.797Z,44.13
2018-02-21T02:29:51.986Z,39.50
2018-02-21T02:32:18.171Z,42.08
2018-02-21T02:34:44.884Z,40.58
2018-02-21T02:37:11.154Z,47.65
2018-02-21T02:40:02.348Z,42.30
2018-02-21T02:42:28.603Z,43.35
2018-02-21T02:44:54.803Z,39.60
2018-02-21T02:47:21.046Z,45.50
2018-02-21T02:49:47.325Z,45.83
2018-02-21T02:52:13.591Z,39.70
2018-02-21T02:54:39.860Z,46.70
2018-02-21T02:57:06.145Z,43.75
2018-02-21T02:59:32.393Z,43.55
2018-02-21T03:01:58.672Z,44.22
2018-02-21T03:04:24.977Z,41.17
2018-02-21T03:06:51.230Z,42.80
2018-02-21T03:09:17.776Z,46.92
2018-02-21T03:11:44.375Z,46.65
2018-02-21T03:14:10.688Z,49.03
2018-02-21T03:16:36.936Z,49.47
2018-02-21T03:19:03.148Z,48.08
2018-02-21T03:21:29.360Z,47.33
2018-02-21T03:23:55.572Z,48.75
2018-02-21T03:26:21.784Z,54.10
2018-02-21T03:28:48.009Z,55.92
2018-02-21T03:31:14.537Z,57.67
2018-02-21T03:33:40.730Z,54.72
2018-02-21T03:36:06.942Z,58.97
2018-02-21T03:38:33.271Z,59.25
2018-02-21T03:40:59.454Z,57.30
2018-02-21T03:43:25.705Z,58.53
2018-02-21T03:45:51.906Z,60.30
2018-02-21T03:48:18.197Z,68.72
2018-02-21T03:50:44.430Z,62.28
2018-02-21T03:53:11.617Z,65.78
2018-02-21T03:55:37.833Z,65.72
2018-02-21T03:58:04.522Z,60.33
2018-02-21T04:00:30.826Z,65.07
2018-02-21T04:02:57.057Z,63.58
2018-02-21T04:05:23.272Z,69.47
2018-02-21T04:07:49.625Z,64.57
2018-02-21T04:10:15.894Z,57.25
2018-02-21T04:12:43.516Z,66.95
2018-02-21T04:15:09.853Z,60.35
2018-02-21T04:17:36.078Z,60.58
2018-02-21T04:20:02.293Z,65.80
2018-02-21T04:22:28.528Z,64.55
2018-02-21T04:24:54.795Z,60.47
2018-02-21T04:27:21.033Z,72.00
2018-02-21T04:29:47.648Z,66.00
2018-02-21T04:32:13.852Z,56.70
2018-02-21T04:34:40.347Z,55.90
2018-02-21T04:37:06.925Z,56.47
2018-02-21T04:39:33.191Z,58.28
2018-02-21T04:41:59.796Z,61.20
2018-02-21T04:44:26.109Z,55.22
2018-02-21T04:46:52.348Z,56.40
2018-02-21T04:49:18.697Z,67.78
2018-02-21T04:51:45.773Z,58.33
2018-02-21T04:54:12.007Z,56.80
2018-02-21T04:56:40.495Z,53.90
2018-02-21T04:59:24.432Z,48.15
2018-02-21T05:01:51.149Z,56.83
2018-02-21T05:04:17.370Z,56.22
2018-02-21T05:06:43.628Z,55.47
2018-02-21T05:09:09.898Z,42.92
2018-02-21T05:11:36.119Z,47.00
2018-02-21T05:14:02.359Z,41.75
2018-02-21T05:16:28.570Z,45.78
2018-02-21T05:18:55.279Z,41.63
2018-02-21T05:21:21.541Z,44.53
2018-02-21T05:23:47.751Z,40.85
2018-02-21T05:26:14.320Z,42.40
2018-02-21T05:28:40.746Z,41.70
2018-02-21T05:31:06.952Z,40.92
2018-02-21T05:33:33.174Z,41.42
2018-02-21T05:35:59.428Z,45.15
2018-02-21T05:38:25.811Z,45.83
2018-02-21T05:40:52.032Z,44.20
2018-02-21T05:43:18.259Z,42.80
2018-02-21T05:45:44.566Z,42.83
2018-02-21T05:48:10.907Z,46.83
2018-02-21T05:50:37.122Z,48.42
2018-02-21T05:53:03.399Z,46.72
2018-02-21T05:55:29.649Z,45.97
2018-02-21T05:57:55.904Z,44.25
2018-02-21T06:00:22.120Z,41.37
2018-02-21T06:02:48.326Z,48.65
2018-02-21T06:05:14.599Z,46.97
2018-02-21T06:07:56.215Z,40.90
2018-02-21T06:10:22.865Z,44.80
2018-02-21T06:12:49.454Z,45.78
2018-02-21T06:15:15.681Z,43.58
2018-02-21T06:17:41.989Z,51.30
2018-02-21T06:20:08.339Z,46.88
2018-02-21T06:22:35.159Z,46.90
2018-02-21T06:25:01.507Z,46.85
2018-02-21T06:27:28.108Z,48.47
2018-02-21T06:29:54.326Z,49.78
2018-02-21T06:32:21.033Z,54.58
2018-02-21T06:34:47.307Z,45.10
2018-02-21T06:37:13.612Z,48.87
2018-02-21T06:39:40.168Z,56.78
2018-02-21T06:42:06.412Z,50.30
2018-02-21T06:44:32.985Z,48.95
2018-02-21T06:46:59.230Z,49.72
2018-02-21T06:49:25.416Z,50.80
2018-02-21T06:51:51.638Z,51.15
2018-02-21T06:54:17.851Z,58.38
2018-02-21T06:56:44.208Z,53.65
2018-02-21T06:59:10.435Z,56.72
2018-02-21T07:01:36.730Z,52.65
2018-02-21T07:04:02.962Z,59.75
2018-02-21T07:06:29.187Z,58.50
2018-02-21T07:08:55.383Z,56.50
2018-02-21T07:11:22.112Z,60.35
2018-02-21T07:13:48.302Z,55.00
2018-02-21T07:16:14.539Z,56.75
2018-02-21T07:18:40.851Z,59.25
2018-02-21T07:21:07.084Z,56.30
2018-02-21T07:23:33.280Z,60.42
2018-02-21T07:25:59.551Z,50.40
2018-02-21T07:28:25.775Z,63.25
2018-02-21T07:30:51.958Z,61.78
2018-02-21T07:33:18.173Z,64.28
2018-02-21T07:35:44.478Z,65.70
2018-02-21T07:38:11.425Z,68.95
2018-02-21T07:40:37.804Z,69.22
2018-02-21T07:43:04.476Z,64.65
2018-02-21T07:45:30.753Z,68.32
2018-02-21T07:47:57.040Z,70.18
2018-02-21T07:50:23.360Z,71.10
2018-02-21T07:52:49.628Z,67.35
2018-02-21T07:55:15.843Z,70.20
2018-02-21T07:57:42.131Z,65.95
2018-02-21T08:00:08.484Z,70.60
2018-02-21T08:02:34.740Z,84.18
2018-02-21T08:05:01.007Z,68.43
2018-02-21T08:07:27.235Z,78.37
2018-02-21T08:09:53.476Z,70.03
2018-02-21T08:12:19.707Z,74.97
2018-02-21T08:14:45.883Z,87.72
2018-02-21T08:17:12.109Z,75.78
2018-02-21T08:19:38.885Z,91.07
2018-02-21T08:22:05.139Z,77.62
2018-02-21T08:24:31.353Z,92.47
2018-02-21T08:26:58.344Z,83.03
2018-02-21T08:29:24.561Z,77.95
2018-02-21T08:31:50.751Z,85.75
2018-02-21T08:34:16.999Z,82.05
2018-02-21T08:36:43.223Z,67.37
2018-02-21T08:39:09.410Z,63.38
2018-02-21T08:41:36.265Z,65.72
2018-02-21T08:44:02.902Z,70.15
2018-02-21T08:46:29.104Z,72.82
2018-02-21T08:48:55.584Z,69.80
2018-02-21T08:51:21.817Z,75.47
2018-02-21T08:53:48.043Z,74.20
2018-02-21T08:56:14.274Z,81.97
2018-02-21T08:58:40.556Z,72.80
2018-02-21T09:01:07.156Z,65.78
2018-02-21T09:03:33.466Z,72.03
2018-02-21T09:05:59.676Z,78.70
2018-02-21T09:08:25.917Z,73.32
2018-02-21T09:10:52.493Z,74.78
2018-02-21T09:13:18.685Z,73.57
2018-02-21T09:15:44.999Z,72.07
2018-02-21T09:18:11.826Z,88.18
2018-02-21T09:20:38.082Z,67.20
2018-02-21T09:23:04.260Z,80.07
2018-02-21T09:25:30.523Z,68.65
2018-02-21T09:27:56.819Z,73.62
2018-02-21T09:30:23.094Z,77.68
2018-02-21T09:32:49.356Z,75.28
2018-02-21T09:35:15.598Z,79.47
2018-02-21T09:37:41.838Z,71.53
2018-02-21T09:40:08.352Z,70.22
2018-02-21T09:42:34.655Z,67.68
2018-02-21T09:45:00.865Z,67.18
2018-02-21T09:47:27.066Z,65.90
2018-02-21T09:49:53.776Z,74.78
2018-02-21T09:52:19.975Z,71.03
2018-02-21T09:54:46.590Z,73.47
2018-02-21T09:57:13.029Z,67.65
2018-02-21T09:59:39.327Z,75.70
2018-02-21T10:02:05.588Z,71.07
2018-02-21T10:04:31.802Z,69.87
2018-02-21T10:06:58.117Z,76.37
2018-02-21T10:09:25.026Z,71.85
2018-02-21T10:11:51.252Z,80.60
2018-02-21T10:14:17.483Z,74.20
2018-02-21T10:16:43.741Z,78.05
2018-02-21T10:19:09.948Z,78.57
2018-02-21T10:21:36.196Z,78.85
2018-02-21T10:24:02.489Z,73.03
2018-02-21T10:26:28.792Z,82.97
2018-02-21T10:28:55.014Z,77.97
2018-02-21T10:31:21.233Z,79.12
2018-02-21T10:33:47.540Z,82.20
2018-02-21T10:36:13.797Z,75.85
2018-02-21T10:38:40.120Z,84.28
2018-02-21T10:41:06.344Z,83.82
2018-02-21T10:43:32.991Z,90.97
2018-02-21T10:45:59.631Z,77.20
2018-02-21T10:48:25.895Z,77.65
2018-02-21T10:50:52.124Z,73.10
2018-02-21T10:53:18.344Z,71.95
2018-02-21T10:55:44.612Z,71.80
2018-02-21T10:58:11.400Z,77.00
2018-02-21T11:00:43.744Z,77.97
2018-02-21T11:03:10.386Z,77.07
2018-02-21T11:05:36.664Z,75.47
2018-02-21T11:08:02.882Z,76.20
2018-02-21T11:10:29.107Z,78.60
2018-02-21T11:12:55.368Z,74.95
2018-02-21T11:15:21.631Z,82.20
2018-02-21T11:17:47.856Z,88.40
2018-02-21T11:20:14.495Z,76.40
2018-02-21T11:22:40.764Z,88.47
2018-02-21T11:25:07.420Z,87.70
2018-02-21T11:27:33.634Z,94.32
2018-02-21T11:29:59.829Z,87.30
2018-02-21T11:32:26.155Z,97.53
2018-02-21T11:34:52.471Z,65.05
2018-02-21T11:37:18.750Z,68.30
2018-02-21T11:39:45.005Z,70.87
2018-02-21T11:42:11.862Z,71.22
2018-02-21T11:44:38.579Z,89.13
2018-02-21T11:47:05.075Z,82.90
2018-02-21T11:49:31.274Z,69.53
2018-02-21T11:51:57.455Z,65.95
2018-02-21T11:54:23.704Z,62.58
2018-02-21T11:56:49.986Z,69.03
2018-02-21T11:59:16.300Z,64.55
2018-02-21T12:01:42.575Z,64.95
2018-02-21T12:04:08.836Z,61.13
2018-02-21T12:06:35.029Z,73.20
2018-02-21T12:09:01.229Z,67.93
2018-02-21T12:11:28.459Z,66.30
2018-02-21T12:13:54.676Z,62.75
2018-02-21T12:16:21.344Z,74.97
2018-02-21T12:18:47.565Z,64.30
2018-02-21T12:21:13.771Z,59.00
2018-02-21T12:23:40.984Z,65.03
2018-02-21T12:26:07.287Z,67.30
2018-02-21T12:28:33.509Z,63.80
2018-02-21T12:30:59.860Z,64.57
2018-02-21T12:33:26.104Z,64.18
2018-02-21T12:35:52.355Z,57.13
2018-02-21T12:38:18.943Z,58.63
2018-02-21T12:40:51.374Z,59.92
2018-02-21T12:43:18.026Z,63.13
2018-02-21T12:45:44.289Z,66.72
2018-02-21T12:48:10.877Z,71.45
2018-02-21T12:50:37.499Z,59.30
2018-02-21T12:53:03.801Z,59.50
2018-02-21T12:55:30.032Z,59.38
2018-02-21T12:57:56.299Z,77.00
2018-02-21T13:00:22.957Z,65.07
2018-02-21T13:02:49.196Z,58.38
2018-02-21T13:05:15.508Z,63.53
2018-02-21T13:07:41.780Z,57.40
2018-02-21T13:10:08.032Z,59.60
2018-02-21T13:12:34.254Z,60.28
2018-02-21T13:15:00.504Z,60.65
2018-02-21T13:17:26.737Z,54.40
2018-02-21T13:19:52.968Z,57.38
2018-02-21T13:22:19.198Z,59.17
2018-02-21T13:24:45.410Z,55.92
2018-02-21T13:27:11.716Z,56.45
2018-02-21T13:29:37.920Z,53.45
2018-02-21T13:32:04.441Z,59.67
2018-02-21T13:34:30.695Z,58.05
2018-02-21T13:36:56.925Z,52.90
2018-02-21T13:39:23.604Z,63.92
2018-02-21T13:41:49.963Z,54.05
2018-02-21T13:44:16.223Z,52.97
2018-02-21T13:46:42.473Z,54.17
2018-02-21T13:49:08.725Z,54.10
2018-02-21T13:51:34.981Z,52.53
2018-02-21T13:54:01.252Z,53.92
2018-02-21T13:56:27.769Z,54.92
2018-02-21T13:58:54.058Z,52.70
2018-02-21T14:01:20.283Z,57.45
2018-02-21T14:03:47.018Z,53.25
2018-02-21T14:06:13.660Z,48.90
2018-02-21T14:08:40.297Z,48.15
2018-02-21T14:11:06.533Z,53.87
2018-02-21T14:13:32.818Z,50.35
2018-02-21T14:15:59.111Z,46.65
2018-02-21T14:18:25.820Z,46.25
2018-02-21T14:20:52.514Z,42.85
2018-02-21T14:23:18.802Z,49.83
2018-02-21T14:25:45.041Z,50.42
2018-02-21T14:28:12.341Z,45.63
2018-02-21T14:30:38.746Z,52.60
2018-02-21T14:33:04.958Z,45.40
2018-02-21T14:35:31.206Z,51.15
2018-02-21T14:37:57.485Z,51.03
2018-02-21T14:40:24.058Z,49.03
2018-02-21T14:42:50.248Z,49.83
2018-02-21T14:45:16.537Z,46.37
2018-02-21T14:47:42.797Z,51.70
2018-02-21T14:50:09.380Z,48.22
2018-02-21T14:52:35.647Z,48.75
2018-02-21T14:55:01.917Z,48.67
2018-02-21T14:57:28.179Z,45.17
2018-02-21T14:59:54.461Z,46.60
2018-02-21T15:02:20.796Z,41.72
2018-02-21T15:04:47.036Z,50.90
2018-02-21T15:07:13.428Z,52.72
2018-02-21T15:09:39.684Z,51.65
2018-02-21T15:12:05.901Z,50.88
2018-02-21T15:14:32.514Z,48.60
2018-02-21T15:16:58.752Z,50.50
2018-02-21T15:19:24.991Z,51.00
2018-02-21T15:21:51.595Z,53.03
2018-02-21T15:24:18.110Z,52.75
2018-02-21T15:26:44.361Z,49.17
2018-02-21T15:29:10.808Z,57.60
2018-02-21T15:31:37.384Z,53.95
2018-02-21T15:34:03.645Z,51.58
2018-02-21T15:36:29.874Z,54.95
2018-02-21T15:38:56.432Z,50.78
2018-02-21T15:41:22.702Z,49.08
2018-02-21T15:43:48.969Z,50.78
2018-02-21T15:46:15.236Z,48.67
2018-02-21T15:48:41.549Z,53.50
2018-02-21T15:51:07.802Z,46.42
2018-02-21T15:53:34.412Z,53.28
2018-02-21T15:56:00.674Z,59.55
2018-02-21T15:58:27.290Z,54.08
2018-02-21T16:00:53.864Z,56.78
2018-02-21T16:03:20.173Z,51.30
2018-02-21T16:05:46.813Z,51.00
2018-02-21T16:08:13.459Z,52.40
2018-02-21T16:10:39.706Z,57.13
2018-02-21T16:13:05.927Z,54.95
2018-02-21T16:15:32.398Z,51.85
2018-02-21T16:17:58.627Z,57.53
2018-02-21T16:20:24.883Z,52.45
2018-02-21T16:22:51.115Z,53.83
2018-02-21T16:25:17.365Z,50.67
2018-02-21T16:27:43.575Z,56.15
2018-02-21T16:30:09.900Z,51.53
2018-02-21T16:32:36.554Z,53.03
2018-02-21T16:35:02.791Z,53.92
2018-02-21T16:37:29.423Z,48.13
2018-02-21T16:39:55.734Z,55.25
2018-02-21T16:42:21.943Z,53.78
2018-02-21T16:44:48.255Z,53.65
2018-02-21T16:47:14.529Z,52.47
2018-02-21T16:49:41.185Z,52.00
2018-02-21T16:52:07.413Z,48.72
2018-02-21T16:54:33.655Z,52.05
2018-02-21T16:56:59.909Z,50.67
2018-02-21T16:59:26.137Z,55.92
2018-02-21T17:01:52.409Z,51.13
2018-02-21T17:04:19.108Z,50.10
2018-02-21T17:06:45.744Z,48.30
2018-02-21T17:09:12.103Z,55.08
2018-02-21T17:11:38.478Z,49.78
2018-02-21T17:14:04.753Z,49.83
2018-02-21T17:16:30.937Z,51.75
2018-02-21T17:18:57.200Z,55.35
2018-02-21T17:21:23.545Z,60.03
2018-02-21T17:23:50.130Z,69.68
2018-02-21T17:26:16.811Z,63.92
2018-02-21T17:28:43.208Z,66.53
2018-02-21T17:31:09.456Z,63.53
2018-02-21T17:33:35.992Z,69.37
2018-02-21T17:36:02.288Z,65.10
2018-02-21T17:38:28.492Z,57.83
2018-02-21T17:41:00.716Z,53.83
2018-02-21T17:43:26.942Z,66.45
2018-02-21T17:45:53.159Z,65.87
2018-02-21T17:48:19.392Z,69.57
2018-02-21T17:50:45.588Z,60.50
2018-02-21T17:53:11.810Z,56.30
2018-02-21T17:55:38.055Z,51.83
2018-02-21T17:58:04.345Z,57.00
2018-02-21T18:00:31.009Z,53.65
2018-02-21T18:02:57.271Z,47.33
2018-02-21T18:05:23.500Z,54.50
2018-02-21T18:07:49.790Z,56.22
2018-02-21T18:10:16.002Z,82.93
2018-02-21T18:12:42.325Z,77.85
2018-02-21T18:15:08.917Z,92.15
2018-02-21T18:17:35.166Z,76.70
2018-02-21T18:20:01.419Z,65.70
2018-02-21T18:22:28.315Z,58.28
2018-02-21T18:24:54.545Z,68.62
2018-02-21T18:27:27.783Z,57.22
2018-02-21T18:29:54.756Z,54.03
2018-02-21T18:32:21.088Z,49.40
2018-02-21T18:34:47.320Z,49.97
2018-02-21T18:37:13.588Z,48.00
2018-02-21T18:39:39.848Z,45.75
2018-02-21T18:42:06.913Z,57.88
2018-02-21T18:44:33.187Z,48.28
2018-02-21T18:47:00.272Z,45.35
2018-02-21T18:49:26.556Z,43.92
2018-02-21T18:51:53.140Z,55.83
2018-02-21T18:54:19.471Z,49.83
2018-02-21T18:56:46.095Z,56.28
2018-02-21T18:59:12.487Z,54.28
2018-02-21T19:01:39.607Z,49.47
2018-02-21T19:04:05.923Z,48.47
2018-02-21T19:06:32.210Z,63.05
2018-02-21T19:08:58.461Z,47.33
2018-02-21T19:11:25.341Z,50.22
2018-02-21T19:13:51.712Z,55.22
2018-02-21T19:16:18.822Z,55.35
2018-02-21T19:18:45.091Z,46.00
2018-02-21T19:21:18.307Z,48.53
2018-02-21T19:23:44.691Z,48.42
2018-02-21T19:26:11.003Z,47.53
2018-02-21T19:28:37.260Z,46.47
2018-02-21T19:31:03.786Z,47.22
2018-02-21T19:33:30.038Z,45.95
2018-02-21T19:35:56.304Z,51.55
2018-02-21T19:38:22.884Z,53.03
2018-02-21T19:40:49.158Z,44.78
2018-02-21T19:43:15.790Z,50.33
2018-02-21T19:45:42.063Z,43.90
2018-02-21T19:48:08.324Z,44.25
2018-02-21T19:50:34.544Z,51.15
2018-02-21T19:53:00.876Z,48.72
2018-02-21T19:55:27.071Z,53.50
2018-02-21T19:57:53.313Z,48.08
2018-02-21T20:00:19.593Z,47.70
2018-02-21T20:02:45.822Z,47.30
2018-02-21T20:05:12.149Z,47.92
2018-02-21T20:07:38.446Z,53.75
2018-02-21T20:10:04.712Z,60.50
2018-02-21T20:12:31.005Z,69.32
2018-02-21T20:14:57.396Z,71.03
2018-02-21T20:17:23.569Z,72.78
2018-02-21T20:19:49.794Z,53.87
2018-02-21T20:22:16.041Z,66.60
2018-02-21T20:24:42.365Z,52.83
2018-02-21T20:27:08.579Z,59.20
2018-02-21T20:29:34.846Z,43.60
2018-02-21T20:32:01.082Z,43.92
2018-02-21T20:34:27.646Z,48.00
2018-02-21T20:36:53.901Z,54.47
2018-02-21T20:39:20.169Z,42.95
2018-02-21T20:41:46.879Z,49.60
2018-02-21T20:44:13.126Z,48.87
2018-02-21T20:46:39.414Z,47.25
2018-02-21T20:49:05.676Z,51.40
2018-02-21T20:51:32.170Z,45.08
2018-02-21T20:53:58.425Z,40.33
2018-02-21T20:56:24.699Z,37.67
2018-02-21T20:58:51.300Z,39.80
2018-02-21T21:01:17.631Z,41.08
2018-02-21T21:03:44.187Z,41.95
2018-02-21T21:06:12.944Z,45.85
2018-02-21T21:08:39.170Z,40.08
2018-02-21T21:11:05.422Z,38.50
2018-02-21T21:13:31.705Z,40.45
2018-02-21T21:15:58.028Z,41.53
2018-02-21T21:18:24.282Z,43.78
2018-02-21T21:20:50.649Z,37.20
2018-02-21T21:23:17.335Z,42.13
2018-02-21T21:25:43.711Z,39.70
2018-02-21T21:28:09.965Z,44.40
2018-02-21T21:30:36.226Z,37.42
2018-02-21T21:33:02.461Z,41.45
2018-02-21T21:35:28.712Z,49.30
2018-02-21T21:37:54.966Z,41.50
2018-02-21T21:40:21.665Z,41.30
2018-02-21T21:42:47.950Z,41.47
2018-02-21T21:45:14.613Z,42.30
2018-02-21T21:47:41.901Z,43.42
2018-02-21T21:50:08.231Z,49.95
2018-02-21T21:52:34.489Z,45.47
2018-02-21T21:55:01.061Z,48.28
2018-02-21T21:57:27.335Z,55.47
2018-02-21T21:59:53.547Z,41.95
2018-02-21T22:02:19.756Z,46.33
2018-02-21T22:04:46.041Z,48.25
2018-02-21T22:07:12.770Z,49.03
2018-02-21T22:09:39.065Z,43.78
2018-02-21T22:12:05.287Z,48.65
2018-02-21T22:14:31.502Z,45.97
2018-02-21T22:16:57.767Z,49.28
2018-02-21T22:19:23.992Z,53.42
2018-02-21T22:21:50.256Z,52.13
2018-02-21T22:24:17.135Z,45.75
2018-02-21T22:26:43.347Z,46.35
2018-02-21T22:29:09.595Z,42.30
2018-02-21T22:31:35.859Z,50.12
2018-02-21T22:34:02.081Z,53.00
2018-02-21T22:36:28.318Z,46.58
2018-02-21T22:38:55.035Z,43.03
2018-02-21T22:41:21.253Z,43.85
2018-02-21T22:43:47.453Z,41.30
2018-02-21T22:46:13.702Z,42.35
2018-02-21T22:48:39.958Z,43.47
2018-02-21T22:51:06.161Z,48.58
2018-02-21T22:53:32.394Z,37.00
2018-02-21T22:55:58.637Z,41.58
2018-02-21T22:58:24.874Z,42.33
2018-02-21T23:00:51.076Z,41.67
2018-02-21T23:03:17.706Z,42.80
2018-02-21T23:05:43.938Z,45.28
2018-02-21T23:08:10.267Z,42.17
2018-02-21T23:10:36.512Z,42.50
2018-02-21T23:13:02.758Z,40.92
2018-02-21T23:15:29.035Z,40.05
2018-02-21T23:17:55.245Z,35.33
2018-02-21T23:20:21.556Z,38.03
2018-02-21T23:22:48.160Z,41.67
2018-02-21T23:25:14.370Z,36.10
2018-02-21T23:27:41.264Z,39.97
2018-02-21T23:30:07.835Z,38.90
2018-02-21T23:32:34.128Z,47.17
2018-02-21T23:35:00.761Z,32.83
2018-02-21T23:37:27.340Z,39.00
2018-02-21T23:39:53.546Z,39.60
2018-02-21T23:42:19.943Z,37.45
2018-02-21T23:44:46.159Z,41.30
2018-02-21T23:47:12.366Z,34.92
2018-02-21T23:49:38.617Z,37.22
2018-02-21T23:52:04.854Z,39.00
2018-02-21T23:54:31.037Z,43.22
2018-02-21T23:56:57.275Z,35.65
2018-02-21T23:59:23.858Z,28.02
